This is the latest recevied weather packets stored in our database for station/object PU2ONU-13. If no packets are shown the sender has not sent any weather packets the latest 10 day(s).
| Time | Temp. | Humidity | Pressure | Rain* | Wind** | Luminosity | Snow |
|---|---|---|---|---|---|---|---|
| 1787991613 | 26.67° C | 47% | 1011 hPa | - | - | - | - |
| 1787989214 | 27.78° C | 45% | 1011 hPa | - | - | - | - |
| 1787988014 | 27.22° C | 47% | 1010 hPa | - | - | - | - |
| 1787985613 | 27.78° C | 47% | 1011 hPa | - | - | - | - |
| 1787984412 | 27.78° C | 46% | 1011 hPa | - | - | - | - |
| 1787982012 | 27.78° C | 46% | 1011 hPa | - | - | - | - |
| 1787980813 | 28.33° C | 45% | 1011 hPa | - | - | - | - |
| 1787978413 | 28.89° C | 44% | 1012 hPa | - | - | - | - |
| 1787977213 | 28.33° C | 47% | 1011 hPa | - | - | - | - |
| 1787974816 | 28.33° C | 46% | 1011 hPa | - | - | - | - |
| 1787973614 | 29.44° C | 43% | 1011 hPa | - | - | - | - |
| 1787971213 | 28.89° C | 43% | 1011 hPa | - | - | - | - |
| 1787970014 | 29.44° C | 42% | 1011 hPa | - | - | - | - |
| 1787967614 | 30° C | 40% | 1011 hPa | - | - | - | - |
| 1787966414 | 30.56° C | 38% | 1011 hPa | - | - | - | - |
| 1787964013 | 30.56° C | 37% | 1012 hPa | - | - | - | - |
| 1787959215 | 31.67° C | 36% | 1009 hPa | - | - | - | - |
| 1787956814 | 31.67° C | 37% | 1010 hPa | - | - | - | - |
| 1787952013 | 33.33° C | 34% | 1009 hPa | - | - | - | - |
| 1787948413 | 32.22° C | 34% | 1007 hPa | - | - | - | - |
| 1787946014 | 32.22° C | 31% | 1008 hPa | - | - | - | - |
| 1787944812 | 31.67° C | 30% | 1008 hPa | - | - | - | - |
| 1787941213 | 31.67° C | 31% | 1008 hPa | - | - | - | - |
| 1787938813 | 30.56° C | 35% | 1008 hPa | - | - | - | - |
| 1787937613 | 30° C | 36% | 1008 hPa | - | - | - | - |
* Rain since midnight (hover to see other rain measurements)
** Current wind speed in m/s (hover to see current wind gust speed)